Terminal Aerodrome Forecast
Issued by NWS

Home | Current Version | Previous Version | Text Only | Print | Product List | Glossary On
Versions: 1 2 3 4 5 6 7 8 9 10 11 12 13 14 15 16 17 18 19 20 21
000
FTUS42 KFFC 182000 AAB
TAFRYY
TAF AMD
KRYY 182028Z 1820/1918 08010KT 4SM -RA OVC050
     FM182200 06011G20KT 5SM SHRA OVC020
     FM190000 04014G24KT 4SM SHRA BR OVC010
     FM190800 04014G24KT 6SM -SHRA BR OVC015
     FM191200 03014G24KT 6SM -RA BKN022=

USA.gov is the U.S. government's official web portal to all federal, state and local government web resources and services.